Time;durP1;ratioP1;P1;durP2;ratioP2;P2;SDS_P1;SDS_P2;PMS_P1;PMS_P2;Temp;Humidity;BMP_temperature;BMP_pressure;BME280_temperature;BME280_humidity;BME280_pressure;Samples;Min_cycle;Max_cycle;Signal;HPM_P1;HPM_P2
2023/08/24 00:01:48;;;;;;;10.43;6.82;;;15.60;99.90;;;;;;5047802;28;20449;-54
2023/08/24 00:04:14;;;;;;;12.05;6.38;;;15.70;99.90;;;;;;5028941;28;20064;-55
2023/08/24 00:06:39;;;;;;;9.15;7.28;;;15.60;99.90;;;;;;5048211;28;20425;-56
2023/08/24 00:09:05;;;;;;;11.27;6.57;;;15.60;99.90;;;;;;5065388;28;20032;-56
2023/08/24 00:11:31;;;;;;;9.02;5.50;;;15.60;99.90;;;;;;5084363;28;20040;-56
2023/08/24 00:13:57;;;;;;;6.18;5.00;;;15.60;99.90;;;;;;5049961;28;20488;-56
2023/08/24 00:16:23;;;;;;;9.93;5.65;;;15.60;99.90;;;;;;5081504;28;20039;-55
2023/08/24 00:18:49;;;;;;;7.22;5.75;;;15.60;99.90;;;;;;5046327;28;20024;-56
2023/08/24 00:21:22;;;;;;;10.73;6.68;;;15.50;99.90;;;;;;5051972;28;20032;-56
2023/08/24 00:23:48;;;;;;;8.25;6.03;;;15.50;99.90;;;;;;5046473;28;21228;-56
2023/08/24 00:26:16;;;;;;;10.52;6.38;;;15.50;99.90;;;;;;5062102;28;20048;-55
2023/08/24 00:28:42;;;;;;;7.00;5.78;;;15.50;99.90;;;;;;5064735;28;20394;-55
2023/08/24 00:31:08;;;;;;;10.52;6.85;;;15.50;99.90;;;;;;5061568;28;20055;-55
2023/08/24 00:33:34;;;;;;;9.48;7.38;;;15.50;99.90;;;;;;5067280;28;20044;-56
2023/08/24 00:36:03;;;;;;;9.20;7.22;;;15.50;99.90;;;;;;5087240;28;20483;-56
2023/08/24 00:38:30;;;;;;;14.07;7.88;;;15.50;99.90;;;;;;5064746;28;20048;-56
2023/08/24 00:40:56;;;;;;;11.05;8.18;;;15.50;99.90;;;;;;5044920;28;20051;-56
2023/08/24 00:43:23;;;;;;;8.77;6.30;;;15.60;99.90;;;;;;5064025;28;20048;-55
2023/08/24 00:45:56;;;;;;;8.18;7.00;;;15.60;99.90;;;;;;5067932;28;20452;-54
2023/08/24 00:48:28;;;;;;;9.00;6.60;;;15.60;99.90;;;;;;5068896;28;20046;-56
2023/08/24 00:51:31;;;;;;;9.07;5.82;;;15.70;99.90;;;;;;5067586;28;20071;-54
2023/08/24 00:53:57;;;;;;;7.90;6.15;;;15.70;99.90;;;;;;5058915;28;20113;-56
2023/08/24 00:56:24;;;;;;;9.95;7.28;;;15.70;99.90;;;;;;5035510;28;20052;-55
2023/08/24 00:58:52;;;;;;;7.40;6.03;;;15.70;99.90;;;;;;5066742;28;20119;-56
2023/08/24 01:01:18;;;;;;;9.63;7.90;;;15.70;99.90;;;;;;5064382;28;20656;-56
2023/08/24 01:03:44;;;;;;;9.18;7.88;;;15.70;99.90;;;;;;5070609;28;20040;-56
2023/08/24 01:06:10;;;;;;;9.10;7.47;;;15.80;99.90;;;;;;5067519;28;20036;-56
2023/08/24 01:08:36;;;;;;;12.60;8.43;;;15.70;99.90;;;;;;5065481;28;20075;-54
2023/08/24 01:11:08;;;;;;;15.60;10.05;;;15.70;99.90;;;;;;5057100;28;20473;-57
2023/08/24 01:13:45;;;;;;;13.07;9.63;;;15.80;99.90;;;;;;5052781;28;20464;-57
2023/08/24 01:16:27;;;;;;;14.02;9.88;;;15.70;99.90;;;;;;5069117;28;20105;-56
2023/08/24 01:18:59;;;;;;;14.05;10.02;;;15.80;99.90;;;;;;5079688;28;20477;-56
2023/08/24 01:21:26;;;;;;;10.60;8.63;;;15.70;99.90;;;;;;5071161;28;20036;-56
2023/08/24 01:24:04;;;;;;;9.75;8.45;;;15.70;99.90;;;;;;5067635;28;20056;-56
2023/08/24 01:26:30;;;;;;;10.45;8.85;;;15.70;99.90;;;;;;5070920;28;20146;-55
2023/08/24 01:28:57;;;;;;;13.43;9.77;;;15.70;99.90;;;;;;5039071;28;20111;-55
2023/08/24 01:31:25;;;;;;;11.65;9.02;;;15.70;99.90;;;;;;5064658;28;20043;-56
2023/08/24 01:33:50;;;;;;;11.45;7.93;;;15.70;99.90;;;;;;5059484;28;20033;-56
2023/08/24 01:36:16;;;;;;;10.55;8.00;;;15.70;99.90;;;;;;5050785;28;20047;-56
2023/08/24 01:38:42;;;;;;;12.73;9.30;;;15.70;99.90;;;;;;5059505;28;20471;-56
2023/08/24 01:41:11;;;;;;;14.73;11.05;;;15.70;99.90;;;;;;5051744;28;20072;-56
2023/08/24 01:43:39;;;;;;;16.42;10.23;;;15.70;99.90;;;;;;5069513;28;20094;-57
2023/08/24 01:46:07;;;;;;;12.77;8.93;;;15.80;99.90;;;;;;5067321;28;20036;-56
2023/08/24 01:48:33;;;;;;;14.20;9.00;;;15.80;99.90;;;;;;5070180;28;20498;-56
2023/08/24 01:51:00;;;;;;;16.00;10.75;;;15.80;99.90;;;;;;5068949;28;20044;-57
2023/08/24 01:53:28;;;;;;;15.43;11.02;;;15.90;99.90;;;;;;5066188;28;20356;-57
2023/08/24 01:55:53;;;;;;;18.75;13.02;;;15.90;99.90;;;;;;5028952;28;20051;-56
2023/08/24 01:58:20;;;;;;;10.73;8.50;;;16.00;99.90;;;;;;5065125;28;20040;-57
2023/08/24 02:00:45;;;;;;;17.77;11.57;;;16.00;99.90;;;;;;5048459;28;20056;-56
2023/08/24 02:03:11;;;;;;;17.20;10.95;;;16.00;99.90;;;;;;5067053;28;20043;-57
2023/08/24 02:05:37;;;;;;;13.98;10.18;;;16.00;99.90;;;;;;5062473;28;20062;-57
2023/08/24 02:08:03;;;;;;;14.18;11.68;;;16.00;99.90;;;;;;5069804;28;20028;-56
2023/08/24 02:10:29;;;;;;;14.32;11.65;;;16.00;99.90;;;;;;5051060;28;20036;-56
2023/08/24 02:12:54;;;;;;;21.70;12.93;;;16.00;99.90;;;;;;5069245;28;20036;-56
2023/08/24 02:15:20;;;;;;;21.35;14.02;;;16.00;99.90;;;;;;5051037;28;20046;-55
2023/08/24 02:17:46;;;;;;;17.08;13.05;;;16.00;99.90;;;;;;5069313;28;20074;-56
2023/08/24 02:20:12;;;;;;;19.80;13.45;;;16.00;99.90;;;;;;5044547;28;20074;-57
2023/08/24 02:22:38;;;;;;;20.98;13.95;;;16.00;99.90;;;;;;5053711;28;20043;-56
2023/08/24 02:25:05;;;;;;;15.05;11.05;;;16.00;99.90;;;;;;5065101;28;20089;-56
2023/08/24 02:27:32;;;;;;;20.80;13.70;;;16.00;99.90;;;;;;5067716;28;20035;-56
2023/08/24 02:30:24;;;;;;;21.27;13.95;;;16.00;99.90;;;;;;5062746;28;20134;-56
2023/08/24 02:32:50;;;;;;;21.02;13.32;;;16.00;99.90;;;;;;5061538;28;20035;-56
2023/08/24 02:35:17;;;;;;;17.73;11.93;;;16.00;99.90;;;;;;5064124;28;20434;-56
2023/08/24 02:37:43;;;;;;;21.02;14.15;;;16.00;99.90;;;;;;5054041;28;20040;-55
2023/08/24 02:40:09;;;;;;;19.75;15.00;;;16.00;99.90;;;;;;5065828;28;20040;-57
2023/08/24 02:42:35;;;;;;;20.40;12.98;;;16.00;99.90;;;;;;5037342;28;20526;-56
2023/08/24 02:45:01;;;;;;;22.20;13.85;;;16.00;99.90;;;;;;5072227;28;20104;-57
2023/08/24 02:47:26;;;;;;;15.43;10.25;;;16.00;99.90;;;;;;5066550;28;20167;-56
2023/08/24 02:49:52;;;;;;;15.40;11.25;;;16.00;99.90;;;;;;5070942;28;20048;-56
2023/08/24 02:52:18;;;;;;;16.95;11.18;;;16.00;99.90;;;;;;5053551;28;20451;-56
2023/08/24 02:54:44;;;;;;;15.60;11.40;;;16.00;99.90;;;;;;5067773;28;20043;-55
2023/08/24 02:57:10;;;;;;;14.88;10.02;;;16.00;99.90;;;;;;5067921;28;20044;-56
2023/08/24 02:59:35;;;;;;;19.45;11.63;;;16.00;99.90;;;;;;5052088;28;20214;-56
2023/08/24 03:02:01;;;;;;;16.38;12.13;;;16.00;99.90;;;;;;5046434;28;20105;-57
2023/08/24 03:04:27;;;;;;;14.20;10.57;;;16.00;99.90;;;;;;5051890;28;20060;-56
2023/08/24 03:06:53;;;;;;;14.60;11.10;;;16.00;99.90;;;;;;5089787;28;20047;-57
2023/08/24 03:09:18;;;;;;;13.52;11.18;;;16.00;99.90;;;;;;5033767;28;20052;-57
2023/08/24 03:11:44;;;;;;;16.33;12.82;;;16.00;99.90;;;;;;5074025;28;20118;-55
2023/08/24 03:14:10;;;;;;;17.27;11.25;;;16.00;99.90;;;;;;5069066;28;20051;-56
2023/08/24 03:16:38;;;;;;;15.07;10.48;;;16.00;99.90;;;;;;5038306;28;20098;-53
2023/08/24 03:19:04;;;;;;;15.07;10.88;;;16.00;99.90;;;;;;5063489;28;20040;-56
2023/08/24 03:21:30;;;;;;;22.40;12.82;;;16.00;99.90;;;;;;5036992;28;20047;-56
2023/08/24 03:23:56;;;;;;;19.35;13.15;;;16.00;99.90;;;;;;5072356;28;20040;-56
2023/08/24 03:26:23;;;;;;;19.40;12.95;;;16.00;99.90;;;;;;5049957;28;20048;-56
2023/08/24 03:28:49;;;;;;;16.55;12.15;;;16.00;99.90;;;;;;5063139;28;20101;-55
2023/08/24 03:31:15;;;;;;;14.57;9.02;;;15.90;99.90;;;;;;5053160;28;20040;-55
2023/08/24 03:33:41;;;;;;;14.48;10.20;;;15.90;99.90;;;;;;5054241;28;20045;-56
2023/08/24 03:36:06;;;;;;;11.48;9.23;;;16.00;99.90;;;;;;5044361;28;20059;-56
2023/08/24 03:38:32;;;;;;;13.85;10.82;;;16.00;99.90;;;;;;5068532;28;20067;-57
2023/08/24 03:41:05;;;;;;;13.95;10.93;;;16.00;99.90;;;;;;5035399;28;20048;-55
2023/08/24 03:43:35;;;;;;;12.63;9.23;;;16.00;99.90;;;;;;5069376;28;20427;-56
2023/08/24 03:46:01;;;;;;;17.15;11.25;;;16.00;99.90;;;;;;5059592;28;20055;-56
2023/08/24 03:48:27;;;;;;;15.90;11.88;;;16.00;99.90;;;;;;5067575;28;20123;-56
2023/08/24 03:50:57;;;;;;;13.90;11.20;;;16.10;99.90;;;;;;5082945;28;20036;-56
2023/08/24 03:53:24;;;;;;;12.77;10.20;;;16.10;99.90;;;;;;5052991;28;20040;-56
2023/08/24 03:55:53;;;;;;;16.02;11.15;;;16.10;99.90;;;;;;5048878;28;20113;-57
2023/08/24 03:58:19;;;;;;;14.15;8.88;;;16.10;99.90;;;;;;5062342;28;20506;-56
2023/08/24 04:00:45;;;;;;;14.35;8.77;;;16.20;99.90;;;;;;5049653;28;20046;-55
2023/08/24 04:03:12;;;;;;;18.80;12.13;;;16.20;99.90;;;;;;5061944;28;20218;-55
2023/08/24 04:05:37;;;;;;;12.88;9.82;;;16.20;99.90;;;;;;5062849;28;20036;-56
2023/08/24 04:08:31;;;;;;;15.88;12.18;;;16.10;99.90;;;;;;5069051;28;20036;-57
2023/08/24 04:10:57;;;;;;;9.43;8.50;;;16.10;99.90;;;;;;5082586;28;20122;-57
2023/08/24 04:13:23;;;;;;;17.65;10.52;;;16.10;99.90;;;;;;5061151;28;20062;-56
2023/08/24 04:15:48;;;;;;;12.98;9.50;;;16.10;99.90;;;;;;5088335;28;20036;-56
2023/08/24 04:18:14;;;;;;;11.90;8.75;;;16.20;99.90;;;;;;5046540;28;20136;-55
2023/08/24 04:20:40;;;;;;;15.43;10.07;;;16.10;99.90;;;;;;5086501;28;20293;-55
2023/08/24 04:23:05;;;;;;;12.82;9.52;;;16.20;99.90;;;;;;5069086;28;20032;-56
2023/08/24 04:25:31;;;;;;;15.95;11.43;;;16.10;99.90;;;;;;5045116;28;20194;-57
2023/08/24 04:27:57;;;;;;;17.90;11.07;;;16.20;99.90;;;;;;5068602;28;20039;-57
2023/08/24 04:30:22;;;;;;;14.95;11.52;;;16.10;99.90;;;;;;5048794;28;20509;-57
2023/08/24 04:32:48;;;;;;;11.30;8.98;;;16.10;99.90;;;;;;5061790;28;20040;-56
2023/08/24 04:35:14;;;;;;;18.23;11.77;;;16.00;99.90;;;;;;5084495;28;20035;-55
2023/08/24 04:37:40;;;;;;;13.63;9.73;;;16.00;99.90;;;;;;5063206;28;20133;-56
2023/08/24 04:40:09;;;;;;;14.77;10.23;;;16.00;99.90;;;;;;5058233;28;20040;-56
2023/08/24 04:42:35;;;;;;;12.73;9.70;;;16.00;99.90;;;;;;5047431;28;20032;-56
2023/08/24 04:45:01;;;;;;;14.88;9.30;;;15.90;99.90;;;;;;5053098;28;20038;-56
2023/08/24 04:47:27;;;;;;;14.32;10.32;;;15.90;99.90;;;;;;5034673;28;20036;-56
2023/08/24 04:49:52;;;;;;;11.48;9.52;;;15.90;99.90;;;;;;5073672;28;20184;-55
2023/08/24 04:52:18;;;;;;;13.90;10.68;;;15.90;99.90;;;;;;5069797;28;20040;-56
2023/08/24 04:54:44;;;;;;;16.55;12.02;;;15.80;99.90;;;;;;5073643;28;20044;-55
2023/08/24 04:57:09;;;;;;;17.15;10.52;;;15.80;99.90;;;;;;5050678;28;20062;-57
2023/08/24 04:59:35;;;;;;;16.05;10.82;;;15.80;99.90;;;;;;5031072;28;20036;-56
2023/08/24 05:02:01;;;;;;;20.40;12.02;;;15.80;99.90;;;;;;5064444;28;20402;-56
2023/08/24 05:04:26;;;;;;;15.70;10.43;;;15.80;99.90;;;;;;5065283;28;20184;-55
2023/08/24 05:06:52;;;;;;;16.30;10.40;;;15.80;99.90;;;;;;5047867;28;20339;-56
2023/08/24 05:09:18;;;;;;;14.25;10.45;;;15.80;99.90;;;;;;5033848;28;20105;-56
2023/08/24 05:11:44;;;;;;;13.23;10.10;;;15.80;99.90;;;;;;5070157;28;20051;-56
2023/08/24 05:14:09;;;;;;;16.65;11.20;;;15.80;99.90;;;;;;5070685;22;20106;-50
2023/08/24 05:16:35;;;;;;;16.58;11.07;;;15.80;99.90;;;;;;5044027;28;20044;-51
2023/08/24 05:19:03;;;;;;;14.13;10.75;;;15.70;99.90;;;;;;5048230;28;20795;-52
2023/08/24 05:21:28;;;;;;;14.73;10.52;;;15.80;99.90;;;;;;5032547;28;20036;-50
2023/08/24 05:23:54;;;;;;;15.55;11.27;;;15.80;99.90;;;;;;5047790;28;20047;-50
2023/08/24 05:26:22;;;;;;;19.75;12.43;;;15.80;99.90;;;;;;5030582;28;20040;-53
2023/08/24 05:28:48;;;;;;;18.38;10.60;;;15.80;99.90;;;;;;5034970;28;20124;-50
2023/08/24 05:31:13;;;;;;;16.15;12.35;;;15.80;99.90;;;;;;5064595;28;20112;-51
2023/08/24 05:33:39;;;;;;;16.33;11.35;;;15.80;99.90;;;;;;5054021;28;20060;-50
2023/08/24 05:36:05;;;;;;;15.27;10.98;;;15.80;99.90;;;;;;5050133;28;20040;-50
2023/08/24 05:38:30;;;;;;;19.27;12.48;;;15.80;99.90;;;;;;5070443;28;20040;-50
2023/08/24 05:40:56;;;;;;;14.75;9.63;;;15.80;99.90;;;;;;5031791;28;20495;-52
2023/08/24 05:43:22;;;;;;;14.57;9.32;;;15.90;99.90;;;;;;5050694;28;20086;-49
2023/08/24 05:45:48;;;;;;;14.90;10.75;;;15.90;99.90;;;;;;5045169;28;20438;-51
2023/08/24 05:48:14;;;;;;;12.75;7.90;;;16.00;99.90;;;;;;5043340;28;20048;-50
2023/08/24 05:50:46;;;;;;;13.95;9.90;;;16.00;99.90;;;;;;5035607;28;20040;-50
2023/08/24 05:53:12;;;;;;;16.35;9.73;;;16.10;99.90;;;;;;5035204;28;20083;-49
2023/08/24 05:55:38;;;;;;;11.70;8.70;;;16.20;99.90;;;;;;5033858;28;20052;-50
2023/08/24 05:58:04;;;;;;;13.07;9.40;;;16.30;99.90;;;;;;5047070;28;20044;-52
2023/08/24 06:00:30;;;;;;;14.65;8.57;;;16.40;99.90;;;;;;5062858;28;20074;-50
2023/08/24 06:02:56;;;;;;;11.02;7.70;;;16.50;99.90;;;;;;5044031;28;20043;-54
2023/08/24 06:05:22;;;;;;;14.25;8.32;;;16.50;99.90;;;;;;5047406;28;21600;-52
2023/08/24 06:07:48;;;;;;;11.55;8.35;;;16.60;99.90;;;;;;5041839;28;20036;-50
2023/08/24 06:10:14;;;;;;;13.18;8.95;;;16.70;99.90;;;;;;5028854;28;20059;-50
2023/08/24 06:12:40;;;;;;;16.25;8.32;;;16.80;99.90;;;;;;5035726;28;20048;-50
2023/08/24 06:15:09;;;;;;;14.40;9.10;;;16.80;99.90;;;;;;5031434;28;20114;-52
2023/08/24 06:17:35;;;;;;;11.10;8.23;;;16.90;99.90;;;;;;5049402;28;20498;-50
2023/08/24 06:20:03;;;;;;;13.20;8.43;;;17.00;99.90;;;;;;5027094;28;20352;-52
2023/08/24 06:22:29;;;;;;;14.05;7.82;;;17.10;99.90;;;;;;5060270;28;20157;-50
2023/08/24 06:24:59;;;;;;;12.45;8.40;;;17.10;99.90;;;;;;5031364;28;20053;-50
2023/08/24 06:27:25;;;;;;;12.50;8.38;;;17.20;99.90;;;;;;5028825;28;20567;-51
2023/08/24 06:29:51;;;;;;;10.43;7.55;;;17.30;99.90;;;;;;5053189;28;20380;-53
2023/08/24 06:32:16;;;;;;;15.10;9.20;;;17.30;99.90;;;;;;5066103;28;20039;-53
2023/08/24 06:34:42;;;;;;;12.15;8.52;;;17.50;99.90;;;;;;5044185;28;20036;-50
2023/08/24 06:37:08;;;;;;;10.98;8.13;;;17.50;99.90;;;;;;5065987;28;20483;-53
2023/08/24 06:39:33;;;;;;;15.18;8.18;;;17.60;99.90;;;;;;5045665;28;20133;-50
2023/08/24 06:41:59;;;;;;;14.38;9.27;;;17.70;99.90;;;;;;5061708;28;20043;-54
2023/08/24 06:44:25;;;;;;;14.30;9.40;;;17.80;99.90;;;;;;5030670;28;20033;-53
2023/08/24 06:46:51;;;;;;;12.43;8.57;;;17.80;99.90;;;;;;5046264;28;20040;-54
2023/08/24 06:49:16;;;;;;;13.48;8.63;;;17.90;99.90;;;;;;5042890;28;20148;-51
2023/08/24 06:51:42;;;;;;;15.02;7.53;;;17.90;99.90;;;;;;5066903;28;20037;-50
2023/08/24 06:54:08;;;;;;;12.90;8.32;;;18.00;99.90;;;;;;5061482;28;20041;-52
2023/08/24 06:56:33;;;;;;;12.13;8.02;;;18.10;99.90;;;;;;5047491;28;20040;-52
2023/08/24 06:58:59;;;;;;;10.57;6.72;;;18.10;99.90;;;;;;5047648;28;20046;-50
2023/08/24 07:01:25;;;;;;;11.75;7.00;;;18.20;99.90;;;;;;5050654;28;20128;-51
2023/08/24 07:03:51;;;;;;;9.52;5.72;;;18.30;99.90;;;;;;5039116;28;20061;-50
2023/08/24 07:06:17;;;;;;;9.82;6.57;;;18.40;99.90;;;;;;5062029;28;20040;-52
2023/08/24 07:08:43;;;;;;;7.50;6.35;;;18.50;99.90;;;;;;5043682;28;20033;-53
2023/08/24 07:11:08;;;;;;;13.40;7.35;;;18.60;99.90;;;;;;5047602;28;20838;-53
2023/08/24 07:13:34;;;;;;;8.75;6.68;;;18.70;99.90;;;;;;5050966;28;20051;-54
2023/08/24 07:16:02;;;;;;;8.77;6.53;;;18.80;99.90;;;;;;5028123;28;20055;-54
2023/08/24 07:18:28;;;;;;;10.45;7.72;;;18.80;99.90;;;;;;5032619;28;20044;-54
2023/08/24 07:20:54;;;;;;;12.68;7.40;;;19.00;99.90;;;;;;5043927;28;20051;-53
2023/08/24 07:23:20;;;;;;;9.50;6.57;;;19.00;99.90;;;;;;5026176;28;20041;-53
2023/08/24 07:26:30;;;;;;;11.05;7.15;;;19.00;99.90;;;;;;5041966;28;20036;-51
2023/08/24 07:28:57;;;;;;;10.60;6.82;;;19.10;99.90;;;;;;5051484;28;20119;-51
2023/08/24 07:31:22;;;;;;;9.05;6.30;;;19.20;99.90;;;;;;5066519;28;20128;-50
2023/08/24 07:33:48;;;;;;;6.90;5.13;;;19.30;99.90;;;;;;5047713;28;20518;-53
2023/08/24 07:36:14;;;;;;;13.15;7.22;;;19.50;99.90;;;;;;5046133;28;20043;-54
2023/08/24 07:38:40;;;;;;;9.00;6.72;;;19.60;99.90;;;;;;5037990;28;20048;-53
2023/08/24 07:41:06;;;;;;;10.38;6.05;;;19.70;99.90;;;;;;5035687;28;20040;-56
2023/08/24 07:43:32;;;;;;;9.35;5.38;;;19.90;99.90;;;;;;5064885;28;20036;-54
2023/08/24 07:45:59;;;;;;;8.02;5.25;;;19.90;99.90;;;;;;5050562;28;20032;-54
2023/08/24 07:48:25;;;;;;;8.35;5.88;;;20.00;99.90;;;;;;5037154;28;20036;-54
2023/08/24 07:50:51;;;;;;;8.85;5.43;;;20.20;99.90;;;;;;5036804;28;20549;-52
2023/08/24 07:53:17;;;;;;;8.98;5.25;;;20.30;99.90;;;;;;5033874;28;20041;-55
2023/08/24 07:55:43;;;;;;;7.57;5.55;;;20.50;99.90;;;;;;5062207;28;20086;-52
2023/08/24 07:58:09;;;;;;;11.77;6.10;;;20.50;99.90;;;;;;5040335;28;20036;-54
2023/08/24 08:00:34;;;;;;;8.38;5.47;;;20.60;99.90;;;;;;5047310;28;20051;-52
2023/08/24 08:03:00;;;;;;;8.25;6.35;;;20.70;99.90;;;;;;5051751;28;20032;-55
2023/08/24 08:05:29;;;;;;;8.77;5.68;;;20.70;99.90;;;;;;5059378;28;20033;-52
2023/08/24 08:07:55;;;;;;;8.95;5.85;;;20.80;99.90;;;;;;5016974;28;20124;-55
2023/08/24 08:10:21;;;;;;;10.38;6.18;;;20.90;99.90;;;;;;5022247;28;20143;-55
2023/08/24 08:12:47;;;;;;;10.35;7.32;;;21.00;99.90;;;;;;5030309;28;20064;-53
2023/08/24 08:15:13;;;;;;;54.63;26.70;;;21.10;99.90;;;;;;5035929;28;20306;-55
2023/08/24 08:17:38;;;;;;;11.18;7.57;;;21.20;99.90;;;;;;5051541;28;20503;-56
2023/08/24 08:20:05;;;;;;;12.57;7.72;;;21.20;99.90;;;;;;5029524;28;20064;-51
2023/08/24 08:22:35;;;;;;;10.68;7.53;;;21.30;99.90;;;;;;5042967;28;20048;-53
2023/08/24 08:25:01;;;;;;;11.20;8.57;;;21.40;99.90;;;;;;5047509;28;20043;-52
2023/08/24 08:27:27;;;;;;;12.07;7.80;;;21.50;99.90;;;;;;5058952;28;20047;-54
2023/08/24 08:29:53;;;;;;;9.75;7.03;;;21.50;99.90;;;;;;5034970;28;20422;-54
2023/08/24 08:32:18;;;;;;;13.02;8.95;;;21.70;99.90;;;;;;5037492;28;20123;-53
2023/08/24 08:34:44;;;;;;;11.75;7.75;;;21.80;99.90;;;;;;5045439;28;20185;-52
2023/08/24 08:37:10;;;;;;;13.65;8.75;;;21.80;99.90;;;;;;5044258;28;20041;-53
2023/08/24 08:39:36;;;;;;;12.52;7.22;;;22.00;99.90;;;;;;5025709;28;20071;-51
2023/08/24 08:42:02;;;;;;;13.73;8.63;;;22.10;99.90;;;;;;5041927;28;20036;-54
2023/08/24 08:44:33;;;;;;;10.63;7.47;;;22.20;99.90;;;;;;5044064;28;20036;-54
2023/08/24 08:47:00;;;;;;;15.68;7.93;;;22.40;99.90;;;;;;5040850;28;20036;-53
2023/08/24 08:49:26;;;;;;;11.93;7.90;;;22.30;99.90;;;;;;5042953;28;20377;-54
2023/08/24 08:51:52;;;;;;;9.88;7.25;;;22.20;99.90;;;;;;5046359;28;20044;-51
2023/08/24 08:54:18;;;;;;;9.07;7.28;;;22.10;99.90;;;;;;5052278;28;20529;-53
2023/08/24 08:56:44;;;;;;;10.82;6.95;;;22.00;99.90;;;;;;5043710;28;20155;-52
2023/08/24 08:59:12;;;;;;;9.80;7.32;;;22.00;99.90;;;;;;5042884;28;20410;-56
2023/08/24 09:01:38;;;;;;;8.30;6.80;;;21.90;99.90;;;;;;5042560;28;20067;-54
2023/08/24 09:04:06;;;;;;;8.77;6.22;;;21.90;99.90;;;;;;5043979;28;20240;-56
2023/08/24 09:06:32;;;;;;;11.10;6.97;;;22.00;99.90;;;;;;5045488;28;20043;-54
2023/08/24 09:08:58;;;;;;;15.35;7.18;;;22.00;99.90;;;;;;5042305;28;20445;-54
2023/08/24 09:11:24;;;;;;;11.05;7.07;;;22.10;99.90;;;;;;5045575;28;20422;-53
2023/08/24 09:13:50;;;;;;;8.13;6.38;;;22.10;99.90;;;;;;5035621;28;20410;-54
2023/08/24 09:16:16;;;;;;;9.80;6.63;;;22.10;99.90;;;;;;5060176;28;20044;-55
2023/08/24 09:18:45;;;;;;;9.75;6.32;;;22.20;99.90;;;;;;5043567;28;20466;-50
2023/08/24 09:21:13;;;;;;;10.90;6.22;;;22.20;99.90;;;;;;5038194;28;20047;-54
2023/08/24 09:23:59;;;;;;;11.25;5.97;;;22.20;99.90;;;;;;5040983;28;20044;-55
2023/08/24 09:26:33;;;;;;;9.32;5.35;;;22.20;99.90;;;;;;5058007;28;20128;-54
2023/08/24 09:29:00;;;;;;;7.43;5.03;;;22.20;99.90;;;;;;5042529;28;20090;-54
2023/08/24 09:31:39;;;;;;;6.20;4.72;;;22.20;99.90;;;;;;5046040;28;20182;-54
2023/08/24 09:34:06;;;;;;;7.50;5.05;;;22.20;99.90;;;;;;5023701;28;20311;-54
2023/08/24 09:36:35;;;;;;;9.95;5.03;;;22.20;99.90;;;;;;5027749;28;20043;-55
2023/08/24 09:39:06;;;;;;;8.68;5.70;;;22.10;99.90;;;;;;5031904;28;20113;-54
2023/08/24 09:41:51;;;;;;;8.55;6.07;;;22.10;99.90;;;;;;5024665;28;20041;-54
2023/08/24 09:44:18;;;;;;;9.68;6.00;;;22.00;99.90;;;;;;5052014;28;20123;-54
2023/08/24 09:46:44;;;;;;;9.43;5.82;;;21.90;99.90;;;;;;5062543;28;20567;-51
2023/08/24 09:49:11;;;;;;;7.40;4.95;;;21.90;99.90;;;;;;5031038;28;20039;-52
2023/08/24 09:51:38;;;;;;;7.78;5.07;;;21.90;99.90;;;;;;5045101;28;20047;-54
2023/08/24 09:54:08;;;;;;;9.52;5.32;;;21.90;99.90;;;;;;5039064;28;20042;-54
2023/08/24 09:56:41;;;;;;;12.82;5.97;;;21.80;99.90;;;;;;5046673;28;20264;-55
2023/08/24 09:59:18;;;;;;;10.23;5.15;;;21.80;99.90;;;;;;5030063;28;20036;-54
2023/08/24 10:01:48;;;;;;;7.20;5.30;;;21.80;99.90;;;;;;5058216;28;20076;-54
2023/08/24 10:04:17;;;;;;;9.93;6.13;;;21.80;99.90;;;;;;5042712;28;20033;-53
2023/08/24 10:06:47;;;;;;;9.95;6.22;;;21.80;99.90;;;;;;5044369;28;20044;-52
2023/08/24 10:09:21;;;;;;;8.75;5.47;;;21.80;99.90;;;;;;5043893;28;20127;-52
2023/08/24 10:11:55;;;;;;;8.68;6.05;;;21.70;99.90;;;;;;5030101;28;20036;-53
2023/08/24 10:14:31;;;;;;;13.38;7.20;;;21.70;99.90;;;;;;5043477;28;20043;-53
2023/08/24 10:16:57;;;;;;;9.93;6.85;;;21.60;99.90;;;;;;5063258;28;20045;-52
2023/08/24 10:19:25;;;;;;;9.75;6.82;;;21.60;99.90;;;;;;5062407;28;20064;-52
2023/08/24 10:21:53;;;;;;;9.75;6.55;;;21.60;99.90;;;;;;5050098;28;20552;-49
2023/08/24 10:24:20;;;;;;;11.50;7.40;;;21.50;99.90;;;;;;5040698;28;20489;-50
2023/08/24 10:26:48;;;;;;;9.27;6.22;;;21.50;99.90;;;;;;5057807;28;20721;-50
2023/08/24 10:29:15;;;;;;;8.82;6.90;;;21.40;99.90;;;;;;5042337;28;20495;-54
2023/08/24 10:31:42;;;;;;;8.43;6.20;;;21.40;99.90;;;;;;5053898;28;20044;-53
2023/08/24 10:34:09;;;;;;;11.43;6.68;;;21.30;99.90;;;;;;5043028;28;20028;-52
2023/08/24 10:36:37;;;;;;;11.23;6.90;;;21.40;99.90;;;;;;5043467;28;20040;-52
2023/08/24 10:39:06;;;;;;;12.98;7.70;;;21.30;99.90;;;;;;5030513;28;20072;-53
2023/08/24 10:41:51;;;;;;;10.38;6.68;;;21.30;99.90;;;;;;5039192;28;20052;-54
2023/08/24 10:44:24;;;;;;;10.85;7.97;;;21.30;99.90;;;;;;5032196;28;20032;-50
2023/08/24 10:47:07;;;;;;;9.95;6.63;;;21.30;99.90;;;;;;5033465;28;20044;-53
2023/08/24 10:49:33;;;;;;;12.20;7.70;;;21.40;99.90;;;;;;5042541;28;20044;-52
2023/08/24 10:52:20;;;;;;;11.40;7.55;;;21.30;99.90;;;;;;5038847;28;20319;-54
2023/08/24 10:54:51;;;;;;;13.45;8.45;;;21.40;99.90;;;;;;5061058;28;20101;-51
2023/08/24 10:57:20;;;;;;;8.93;7.00;;;21.30;99.90;;;;;;5055399;28;20052;-52
2023/08/24 10:59:57;;;;;;;12.63;9.23;;;21.40;99.90;;;;;;5060230;28;20715;-55
2023/08/24 11:02:23;;;;;;;14.90;9.68;;;21.30;99.90;;;;;;5057521;28;20368;-50
2023/08/24 11:05:06;;;;;;;12.15;8.63;;;21.30;99.90;;;;;;5026786;28;20047;-54
2023/08/24 11:07:32;;;;;;;11.13;7.88;;;21.30;99.90;;;;;;5056261;28;20098;-53
2023/08/24 11:09:57;;;;;;;11.43;7.70;;;21.30;99.90;;;;;;5055269;28;20052;-49
2023/08/24 11:12:23;;;;;;;12.55;8.40;;;21.30;99.90;;;;;;5029949;28;20120;-49
2023/08/24 11:15:01;;;;;;;11.63;6.38;;;21.30;99.90;;;;;;5045612;28;20228;-49
2023/08/24 11:17:32;;;;;;;11.95;7.68;;;21.30;99.90;;;;;;5047509;28;20040;-54
2023/08/24 11:19:58;;;;;;;18.58;10.10;;;21.30;99.90;;;;;;5061339;28;20040;-55
2023/08/24 11:22:25;;;;;;;13.10;8.27;;;21.30;99.90;;;;;;5055385;28;20089;-50
2023/08/24 11:24:51;;;;;;;15.48;9.18;;;21.30;99.90;;;;;;5055288;28;20047;-50
2023/08/24 11:27:17;;;;;;;13.40;9.10;;;21.30;99.90;;;;;;5037758;28;20044;-52
2023/08/24 11:29:43;;;;;;;14.98;10.02;;;21.30;99.90;;;;;;5053198;28;20046;-50
2023/08/24 11:32:08;;;;;;;9.30;8.32;;;21.30;99.90;;;;;;5041482;28;20045;-49
2023/08/24 11:34:35;;;;;;;15.18;10.23;;;21.30;99.90;;;;;;5057643;28;20133;-51
2023/08/24 11:37:01;;;;;;;13.07;10.18;;;21.30;99.90;;;;;;5028464;28;20257;-53
2023/08/24 11:39:31;;;;;;;14.50;9.30;;;21.40;99.90;;;;;;5035403;28;20395;-52
2023/08/24 11:41:58;;;;;;;14.57;9.65;;;21.40;99.90;;;;;;5043342;28;20087;-52
2023/08/24 11:44:23;;;;;;;17.30;11.13;;;21.40;99.90;;;;;;5038037;28;20048;-52
2023/08/24 11:46:49;;;;;;;12.48;10.30;;;21.40;99.90;;;;;;5039296;28;20051;-50
2023/08/24 11:49:15;;;;;;;13.05;10.25;;;21.40;99.90;;;;;;5042829;28;20025;-50
2023/08/24 11:51:41;;;;;;;19.73;9.60;;;21.40;99.90;;;;;;5059017;28;20119;-51
2023/08/24 11:54:08;;;;;;;11.57;9.32;;;21.40;99.90;;;;;;5042013;28;20044;-50
2023/08/24 11:56:41;;;;;;;13.02;9.60;;;21.40;99.90;;;;;;5045045;28;20368;-54
2023/08/24 11:59:12;;;;;;;14.07;10.80;;;21.40;99.90;;;;;;5021877;28;20452;-54
2023/08/24 12:01:39;;;;;;;15.30;12.10;;;21.40;99.90;;;;;;5034314;28;20052;-54
2023/08/24 12:04:05;;;;;;;14.02;11.80;;;21.40;99.90;;;;;;5045048;28;20047;-51
2023/08/24 12:06:31;;;;;;;15.73;12.82;;;21.40;99.90;;;;;;5046146;28;20041;-53
2023/08/24 12:08:57;;;;;;;16.35;11.18;;;21.40;99.90;;;;;;5043250;28;20085;-53
2023/08/24 12:11:25;;;;;;;18.75;14.65;;;21.50;99.90;;;;;;5032998;28;20039;-53
2023/08/24 12:13:54;;;;;;;17.50;14.32;;;21.50;99.90;;;;;;5025354;28;20074;-54
2023/08/24 12:16:22;;;;;;;20.42;13.70;;;21.60;99.90;;;;;;5056370;28;20041;-53
2023/08/24 12:18:53;;;;;;;17.02;14.48;;;21.50;99.90;;;;;;5038578;28;20047;-54
2023/08/24 12:21:20;;;;;;;18.48;13.35;;;21.60;99.90;;;;;;5028090;28;20048;-53
2023/08/24 12:24:05;;;;;;;18.73;12.68;;;21.60;99.90;;;;;;5045142;28;20032;-54
2023/08/24 12:26:32;;;;;;;18.48;13.73;;;21.60;99.90;;;;;;5059509;28;20499;-52
2023/08/24 12:29:17;;;;;;;19.38;14.85;;;21.60;99.90;;;;;;5053167;28;20040;-50
2023/08/24 12:31:44;;;;;;;17.77;13.98;;;21.60;99.90;;;;;;5058602;28;20048;-54
2023/08/24 12:34:10;;;;;;;15.15;12.73;;;21.60;99.90;;;;;;5038256;28;20052;-53
2023/08/24 12:36:37;;;;;;;13.23;10.52;;;21.70;99.90;;;;;;5050351;28;20044;-53
2023/08/24 12:39:05;;;;;;;18.95;13.82;;;21.70;99.90;;;;;;5039244;28;20116;-53